PWSweather.com
Personal Weather Stations
Station Observations
SHAHALMS1
Eftra, Falkenberg, HA

EftraFalkenberg, HA

Lat: 56.85, Lon: 12.65

Elevation: 140

Station Type:

http://hem.passagen.se/risarp101

High Low Average
Temperature 63.5°F17.5°C 57.2°F14.0°C 59.7°F15.4°C
Dew Point 58.8°F14.9°C 53.0°F11.7°C 55.7°F13.2°C
Winds 12.8 mph 20.6 kmh Calm Calm 6.0 mph SW9.7 kmh SW
Wind Gusts 30.1 mph48.4 kmh -- 10.0 mph16.1 kmh
Humidity 93% 77% 87%
Pressure 29.83 in1010.2 mb 29.68 in1005.1 mb -
Precipitation 0.33 in8.4 mm - -
Hour Temp Dew Point Humidity Winds Wind Gusts Pressure Precip Precip Rate Daily Precip Total
12:00 AM 63.5°F17.5°C 56.2°F13.4°C 77% 7.4 mph SSW11.9 kmh SSW 16.8 mph27.0 kmh 29.77 in1008.1 mb 0.00 in0.0 mm 0.00 in0.0 mm 0.00 in0.0 mm
12:15 AM 63.3°F17.4°C 56.0°F13.3°C 77% 7.4 mph S11.9 kmh S 10.7 mph17.2 kmh 29.74 in1007.1 mb 0.00 in0.0 mm 0.00 in0.0 mm 0.00 in0.0 mm
12:30 AM 63.3°F17.4°C 56.3°F13.5°C 78% 10.2 mph S16.4 kmh S 16.8 mph27.0 kmh 29.74 in1007.1 mb 0.00 in0.0 mm 0.00 in0.0 mm 0.00 in0.0 mm
12:45 AM 63.3°F17.4°C 56.3°F13.5°C 78% 8.7 mph S14.0 kmh S 17.2 mph27.7 kmh 29.74 in1007.1 mb 0.00 in0.0 mm 0.00 in0.0 mm 0.00 in0.0 mm
01:00 AM 63.1°F17.3°C 56.5°F13.6°C 79% 11.0 mph S17.7 kmh S 24.3 mph39.1 kmh 29.71 in1006.1 mb 0.00 in0.0 mm 0.00 in0.0 mm 0.00 in0.0 mm
01:15 AM 63.0°F17.2°C 56.7°F13.7°C 80% 6.9 mph S11.1 kmh S 15.7 mph25.3 kmh 29.71 in1006.1 mb 0.00 in0.0 mm 0.00 in0.0 mm 0.00 in0.0 mm
01:30 AM 62.8°F17.1°C 56.9°F13.8°C 81% 8.2 mph S13.2 kmh S 22.9 mph36.9 kmh 29.74 in1007.1 mb 0.00 in0.0 mm 0.00 in0.0 mm 0.00 in0.0 mm
01:45 AM 63.1°F17.3°C 57.2°F14.0°C 81% 10.9 mph SSW17.5 kmh SSW 20.8 mph33.5 kmh 29.74 in1007.1 mb 0.00 in0.0 mm 0.00 in0.0 mm 0.00 in0.0 mm
02:00 AM 63.5°F17.5°C 57.6°F14.2°C 81% 12.8 mph S20.6 kmh S 30.1 mph48.4 kmh 29.74 in1007.1 mb 0.00 in0.0 mm 0.00 in0.0 mm 0.00 in0.0 mm
02:15 AM 63.5°F17.5°C 57.9°F14.4°C 82% 12.1 mph WSW19.5 kmh WSW 27.6 mph44.4 kmh 29.74 in1007.1 mb 0.00 in0.0 mm 0.00 in0.0 mm 0.00 in0.0 mm
02:30 AM 62.8°F17.1°C 56.2°F13.4°C 79% 7.2 mph WSW11.6 kmh WSW 19.0 mph30.6 kmh 29.77 in1008.1 mb 0.00 in0.0 mm 0.00 in0.0 mm 0.00 in0.0 mm
02:45 AM 60.8°F16.0°C 54.2°F12.3°C 79% 5.4 mph W8.7 kmh W 12.9 mph20.8 kmh 29.80 in1009.1 mb 0.00 in0.0 mm 0.00 in0.0 mm 0.00 in0.0 mm
03:00 AM 59.9°F15.5°C 53.4°F11.9°C 79% 4.5 mph W7.2 kmh W 9.3 mph15.0 kmh 29.77 in1008.1 mb 0.00 in0.0 mm 0.00 in0.0 mm 0.00 in0.0 mm
03:15 AM 59.2°F15.1°C 53.0°F11.7°C 80% 5.1 mph W8.2 kmh W 10.4 mph16.7 kmh 29.80 in1009.1 mb 0.00 in0.0 mm 0.00 in0.0 mm 0.00 in0.0 mm
03:30 AM 59.0°F15.0°C 53.5°F11.9°C 82% 3.1 mph WSW5.0 kmh WSW 6.4 mph10.3 kmh 29.77 in1008.1 mb 0.00 in0.0 mm 0.00 in0.0 mm 0.00 in0.0 mm
03:45 AM 58.8°F14.9°C 54.0°F12.2°C 84% 4.3 mph W6.9 kmh W 9.7 mph15.6 kmh 29.77 in1008.1 mb 0.00 in0.0 mm 0.00 in0.0 mm 0.00 in0.0 mm
04:00 AM 59.0°F15.0°C 54.5°F12.5°C 85% 3.1 mph SW5.0 kmh SW 9.3 mph15.0 kmh 29.77 in1008.1 mb 0.00 in0.0 mm 0.00 in0.0 mm 0.00 in0.0 mm
04:16 AM 59.2°F15.1°C 55.0°F12.8°C 86% 4.2 mph SW6.8 kmh SW 12.5 mph20.1 kmh 29.77 in1008.1 mb 0.00 in0.0 mm 0.00 in0.0 mm 0.00 in0.0 mm
04:30 AM 59.2°F15.1°C 55.3°F12.9°C 87% 4.5 mph SSW7.2 kmh SSW 9.3 mph15.0 kmh 29.77 in1008.1 mb 0.00 in0.0 mm 0.00 in0.0 mm 0.00 in0.0 mm
04:45 AM 59.4°F15.2°C 55.8°F13.2°C 88% 5.1 mph S8.2 kmh S 12.2 mph19.6 kmh 29.77 in1008.1 mb 0.00 in0.0 mm 0.00 in0.0 mm 0.00 in0.0 mm
05:00 AM 59.5°F15.3°C 56.0°F13.3°C 88% 5.4 mph SW8.7 kmh SW 12.2 mph19.6 kmh 29.80 in1009.1 mb 0.00 in0.0 mm 0.00 in0.0 mm 0.00 in0.0 mm
05:15 AM 59.5°F15.3°C 56.0°F13.3°C 88% 4.7 mph SW7.6 kmh SW 11.5 mph18.5 kmh 29.77 in1008.1 mb 0.00 in0.0 mm 0.00 in0.0 mm 0.00 in0.0 mm
05:30 AM 59.4°F15.2°C 55.8°F13.2°C 88% 3.6 mph SSW5.8 kmh SSW 10.4 mph16.7 kmh 29.77 in1008.1 mb 0.00 in0.0 mm 0.00 in0.0 mm 0.00 in0.0 mm
05:45 AM 59.4°F15.2°C 55.8°F13.2°C 88% 5.4 mph WSW8.7 kmh WSW 15.0 mph24.1 kmh 29.77 in1008.1 mb 0.00 in0.0 mm 0.00 in0.0 mm 0.00 in0.0 mm
06:00 AM 59.5°F15.3°C 56.3°F13.5°C 89% 5.1 mph SW8.2 kmh SW 11.1 mph17.9 kmh 29.77 in1008.1 mb 0.00 in0.0 mm 0.00 in0.0 mm 0.00 in0.0 mm
06:15 AM 59.5°F15.3°C 56.3°F13.5°C 89% 6.0 mph WSW9.7 kmh WSW 11.8 mph19.0 kmh 29.77 in1008.1 mb 0.00 in0.0 mm 0.00 in0.0 mm 0.00 in0.0 mm
06:30 AM 59.9°F15.5°C 56.6°F13.7°C 89% 5.2 mph WSW8.4 kmh WSW 11.8 mph19.0 kmh 29.80 in1009.1 mb 0.00 in0.0 mm 0.00 in0.0 mm 0.00 in0.0 mm
06:45 AM 60.4°F15.8°C 57.2°F14.0°C 89% 5.5 mph SW8.9 kmh SW 19.3 mph31.1 kmh 29.80 in1009.1 mb 0.00 in0.0 mm 0.00 in0.0 mm 0.00 in0.0 mm
07:00 AM 61.2°F16.2°C 57.9°F14.4°C 89% 5.9 mph WSW9.5 kmh WSW 10.0 mph16.1 kmh 29.80 in1009.1 mb 0.00 in0.0 mm 0.00 in0.0 mm 0.00 in0.0 mm
07:15 AM 62.1°F16.7°C 58.8°F14.9°C 89% 6.2 mph WSW10.0 kmh WSW 13.6 mph21.9 kmh 29.80 in1009.1 mb 0.00 in0.0 mm 0.00 in0.0 mm 0.00 in0.0 mm
07:30 AM 61.7°F16.5°C 57.8°F14.3°C 87% 5.7 mph W9.2 kmh W 15.7 mph25.3 kmh 29.80 in1009.1 mb 0.00 in0.0 mm 0.00 in0.0 mm 0.00 in0.0 mm
07:45 AM 61.7°F16.5°C 57.5°F14.2°C 86% 4.7 mph WSW7.6 kmh WSW 10.4 mph16.7 kmh 29.80 in1009.1 mb 0.00 in0.0 mm 0.00 in0.0 mm 0.00 in0.0 mm
08:00 AM 61.9°F16.6°C 57.6°F14.2°C 86% 5.1 mph W8.2 kmh W 11.8 mph19.0 kmh 29.80 in1009.1 mb 0.00 in0.0 mm 0.00 in0.0 mm 0.00 in0.0 mm
08:15 AM 62.2°F16.8°C 57.7°F14.3°C 85% 4.8 mph WSW7.7 kmh WSW 9.7 mph15.6 kmh 29.80 in1009.1 mb 0.00 in0.0 mm 0.00 in0.0 mm 0.00 in0.0 mm
08:30 AM 63.1°F17.3°C 58.6°F14.8°C 85% 6.9 mph WSW11.1 kmh WSW 17.2 mph27.7 kmh 29.80 in1009.1 mb 0.00 in0.0 mm 0.00 in0.0 mm 0.00 in0.0 mm
08:45 AM 63.3°F17.4°C 57.7°F14.3°C 82% 5.8 mph WSW9.3 kmh WSW 14.0 mph22.5 kmh 29.77 in1008.1 mb 0.00 in0.0 mm 0.00 in0.0 mm 0.00 in0.0 mm
09:00 AM 62.2°F16.8°C 55.3°F12.9°C 78% 6.6 mph WSW10.6 kmh WSW 19.7 mph31.7 kmh 29.80 in1009.1 mb 0.00 in0.0 mm 0.00 in0.0 mm 0.00 in0.0 mm
09:15 AM 61.5°F16.4°C 54.6°F12.6°C 78% 5.1 mph W8.2 kmh W 8.9 mph14.3 kmh 29.77 in1008.1 mb 0.00 in0.0 mm 0.00 in0.0 mm 0.00 in0.0 mm
09:30 AM 60.8°F16.0°C 54.6°F12.6°C 80% 4.1 mph W6.6 kmh W 8.6 mph13.8 kmh 29.80 in1009.1 mb 0.00 in0.0 mm 0.00 in0.0 mm 0.00 in0.0 mm
09:45 AM 60.4°F15.8°C 54.9°F12.7°C 82% 3.3 mph W5.3 kmh W 6.1 mph9.8 kmh 29.80 in1009.1 mb 0.00 in0.0 mm 0.00 in0.0 mm 0.00 in0.0 mm
10:00 AM 60.1°F15.6°C 55.2°F12.9°C 84% 3.8 mph WNW6.1 kmh WNW 6.4 mph10.3 kmh 29.80 in1009.1 mb 0.00 in0.0 mm 0.00 in0.0 mm 0.00 in0.0 mm
10:15 AM 60.4°F15.8°C 55.9°F13.3°C 85% 3.2 mph W5.1 kmh W 11.1 mph17.9 kmh 29.77 in1008.1 mb 0.00 in0.0 mm 0.00 in0.0 mm 0.00 in0.0 mm
10:30 AM 60.1°F15.6°C 55.6°F13.1°C 85% 11.1 mph NW17.9 kmh NW 13.6 mph21.9 kmh 29.80 in1009.1 mb 0.00 in0.0 mm 0.00 in0.0 mm 0.00 in0.0 mm
10:45 AM 59.9°F15.5°C 55.7°F13.2°C 86% 11.1 mph NW17.9 kmh NW 13.6 mph21.9 kmh 29.80 in1009.1 mb 0.05 in1.3 mm 0.20 in5.1 mm 0.05 in1.3 mm
11:00 AM 60.1°F15.6°C 56.2°F13.4°C 87% 11.1 mph NW17.9 kmh NW 13.6 mph21.9 kmh 29.77 in1008.1 mb 0.05 in1.3 mm 0.00 in0.0 mm 0.05 in1.3 mm
11:15 AM 59.9°F15.5°C 56.0°F13.3°C 87% 11.1 mph NW17.9 kmh NW 13.6 mph21.9 kmh 29.80 in1009.1 mb 0.05 in1.3 mm 0.00 in0.0 mm 0.05 in1.3 mm
11:30 AM 60.3°F15.7°C 56.7°F13.7°C 88% 11.1 mph NW17.9 kmh NW 13.6 mph21.9 kmh 29.80 in1009.1 mb 0.09 in2.3 mm 0.16 in4.1 mm 0.09 in2.3 mm
11:45 AM 60.4°F15.8°C 56.9°F13.8°C 88% 11.1 mph NW17.9 kmh NW 13.6 mph21.9 kmh 29.77 in1008.1 mb 0.05 in1.3 mm 0.00 in0.0 mm 0.09 in2.3 mm
12:00 PM 60.3°F15.7°C 56.7°F13.7°C 88% 11.1 mph NW17.9 kmh NW 13.6 mph21.9 kmh 29.80 in1009.1 mb 0.05 in1.3 mm 0.00 in0.0 mm 0.09 in2.3 mm
12:15 PM 59.9°F15.5°C 56.3°F13.5°C 88% 11.1 mph NW17.9 kmh NW 13.6 mph21.9 kmh 29.77 in1008.1 mb 0.05 in1.3 mm 0.00 in0.0 mm 0.09 in2.3 mm
12:30 PM 59.5°F15.3°C 55.7°F13.2°C 87% 11.1 mph NW17.9 kmh NW 13.6 mph21.9 kmh 29.80 in1009.1 mb 0.00 in0.0 mm 0.00 in0.0 mm 0.09 in2.3 mm
12:45 PM 59.2°F15.1°C 55.3°F12.9°C 87% 11.1 mph NW17.9 kmh NW 13.6 mph21.9 kmh 29.77 in1008.1 mb 0.00 in0.0 mm 0.00 in0.0 mm 0.09 in2.3 mm
01:00 PM 59.0°F15.0°C 55.1°F12.8°C 87% 11.1 mph NW17.9 kmh NW 13.6 mph21.9 kmh 29.77 in1008.1 mb 0.00 in0.0 mm 0.00 in0.0 mm 0.09 in2.3 mm
01:15 PM 59.0°F15.0°C 55.4°F13.0°C 88% 4.1 mph W6.6 kmh W 5.0 mph8.0 kmh 29.80 in1009.1 mb 0.06 in1.5 mm 0.24 in6.1 mm 0.15 in3.8 mm
01:30 PM 58.8°F14.9°C 55.3°F12.9°C 88% 4.1 mph W6.6 kmh W 5.0 mph8.0 kmh 29.77 in1008.1 mb 0.06 in1.5 mm 0.00 in0.0 mm 0.15 in3.8 mm
01:45 PM 58.8°F14.9°C 55.3°F12.9°C 88% 4.1 mph W6.6 kmh W 5.0 mph8.0 kmh 29.77 in1008.1 mb 0.06 in1.5 mm 0.00 in0.0 mm 0.15 in3.8 mm
02:00 PM 58.6°F14.8°C 55.1°F12.8°C 88% 4.1 mph W6.6 kmh W 5.0 mph8.0 kmh 29.80 in1009.1 mb 0.06 in1.5 mm 0.00 in0.0 mm 0.15 in3.8 mm
02:15 PM 58.3°F14.6°C 54.7°F12.6°C 88% 4.1 mph W6.6 kmh W 5.0 mph8.0 kmh 29.77 in1008.1 mb 0.00 in0.0 mm 0.00 in0.0 mm 0.15 in3.8 mm
02:30 PM 57.7°F14.3°C 53.9°F12.2°C 87% 4.1 mph W6.6 kmh W 5.0 mph8.0 kmh 29.77 in1008.1 mb 0.00 in0.0 mm 0.00 in0.0 mm 0.15 in3.8 mm
02:45 PM 57.7°F14.3°C 53.9°F12.2°C 87% 4.1 mph W6.6 kmh W 5.0 mph8.0 kmh 29.80 in1009.1 mb 0.00 in0.0 mm 0.00 in0.0 mm 0.15 in3.8 mm
03:00 PM 57.7°F14.3°C 53.9°F12.2°C 87% 4.1 mph W6.6 kmh W 5.0 mph8.0 kmh 29.80 in1009.1 mb 0.00 in0.0 mm 0.00 in0.0 mm 0.15 in3.8 mm
03:15 PM 57.9°F14.4°C 54.4°F12.4°C 88% 4.1 mph W6.6 kmh W 5.0 mph8.0 kmh 29.77 in1008.1 mb 0.00 in0.0 mm 0.00 in0.0 mm 0.15 in3.8 mm
03:30 PM 58.3°F14.6°C 54.7°F12.6°C 88% 4.1 mph W6.6 kmh W 5.0 mph8.0 kmh 29.80 in1009.1 mb 0.00 in0.0 mm 0.00 in0.0 mm 0.15 in3.8 mm
03:45 PM 58.3°F14.6°C 54.7°F12.6°C 88% 4.1 mph W6.6 kmh W 5.0 mph8.0 kmh 29.80 in1009.1 mb 0.00 in0.0 mm 0.00 in0.0 mm 0.15 in3.8 mm
04:00 PM 58.5°F14.7°C 54.9°F12.7°C 88% 4.1 mph W6.6 kmh W 5.0 mph8.0 kmh 29.80 in1009.1 mb 0.00 in0.0 mm 0.00 in0.0 mm 0.15 in3.8 mm
04:15 PM 58.6°F14.8°C 55.1°F12.8°C 88% 4.1 mph W6.6 kmh W 5.0 mph8.0 kmh 29.83 in1010.2 mb 0.00 in0.0 mm 0.00 in0.0 mm 0.15 in3.8 mm
04:30 PM 58.5°F14.7°C 55.2°F12.9°C 89% 4.1 mph W6.6 kmh W 5.0 mph8.0 kmh 29.80 in1009.1 mb 0.00 in0.0 mm 0.00 in0.0 mm 0.15 in3.8 mm
04:45 PM 58.5°F14.7°C 55.2°F12.9°C 89% 4.1 mph W6.6 kmh W 5.0 mph8.0 kmh 29.80 in1009.1 mb 0.00 in0.0 mm 0.00 in0.0 mm 0.15 in3.8 mm
05:00 PM 58.3°F14.6°C 55.1°F12.8°C 89% 4.1 mph W6.6 kmh W 5.0 mph8.0 kmh 29.80 in1009.1 mb 0.05 in1.3 mm 0.07 in1.8 mm 0.20 in5.1 mm
05:15 PM 57.9°F14.4°C 54.7°F12.6°C 89% 4.1 mph W6.6 kmh W 5.0 mph8.0 kmh 29.80 in1009.1 mb 0.05 in1.3 mm 0.00 in0.0 mm 0.20 in5.1 mm
05:30 PM 57.7°F14.3°C 54.5°F12.5°C 89% 4.1 mph W6.6 kmh W 5.0 mph8.0 kmh 29.80 in1009.1 mb 0.05 in1.3 mm 0.00 in0.0 mm 0.20 in5.1 mm
05:45 PM 57.7°F14.3°C 54.5°F12.5°C 89% 4.1 mph W6.6 kmh W 5.0 mph8.0 kmh 29.80 in1009.1 mb 0.05 in1.3 mm 0.00 in0.0 mm 0.20 in5.1 mm
06:00 PM 57.6°F14.2°C 54.3°F12.4°C 89% 4.1 mph W6.6 kmh W 5.0 mph8.0 kmh 29.80 in1009.1 mb 0.00 in0.0 mm 0.00 in0.0 mm 0.20 in5.1 mm
06:15 PM 57.2°F14.0°C 54.0°F12.2°C 89% 4.1 mph W6.6 kmh W 5.0 mph8.0 kmh 29.80 in1009.1 mb 0.05 in1.3 mm 0.20 in5.1 mm 0.24 in6.1 mm
06:30 PM 57.2°F14.0°C 54.0°F12.2°C 89% 4.1 mph W6.6 kmh W 5.0 mph8.0 kmh 29.77 in1008.1 mb 0.05 in1.3 mm 0.00 in0.0 mm 0.24 in6.1 mm
06:45 PM 57.2°F14.0°C 54.3°F12.4°C 90% 4.1 mph W6.6 kmh W 5.0 mph8.0 kmh 29.77 in1008.1 mb 0.05 in1.3 mm 0.00 in0.0 mm 0.24 in6.1 mm
07:00 PM 57.2°F14.0°C 54.3°F12.4°C 90% 4.1 mph W6.6 kmh W 5.0 mph8.0 kmh 29.74 in1007.1 mb 0.05 in1.3 mm 0.00 in0.0 mm 0.24 in6.1 mm
07:15 PM 57.2°F14.0°C 54.3°F12.4°C 90% 4.1 mph W6.6 kmh W 5.0 mph8.0 kmh 29.77 in1008.1 mb 0.00 in0.0 mm 0.00 in0.0 mm 0.24 in6.1 mm
07:30 PM 57.4°F14.1°C 54.5°F12.5°C 90% 3.8 mph S6.1 kmh S 11.5 mph18.5 kmh 29.74 in1007.1 mb 0.00 in0.0 mm 0.00 in0.0 mm 0.24 in6.1 mm
07:45 PM 57.4°F14.1°C 54.5°F12.5°C 90% 2.3 mph S3.7 kmh S 7.5 mph12.1 kmh 29.74 in1007.1 mb 0.00 in0.0 mm 0.00 in0.0 mm 0.24 in6.1 mm
08:00 PM 57.6°F14.2°C 55.0°F12.8°C 91% 2.4 mph S3.9 kmh S 6.4 mph10.3 kmh 29.74 in1007.1 mb 0.00 in0.0 mm 0.00 in0.0 mm 0.24 in6.1 mm
08:15 PM 57.7°F14.3°C 55.1°F12.8°C 91% 1.9 mph S3.1 kmh S 6.1 mph9.8 kmh 29.74 in1007.1 mb 0.00 in0.0 mm 0.00 in0.0 mm 0.24 in6.1 mm
08:30 PM 57.7°F14.3°C 55.1°F12.8°C 91% 1.9 mph S3.1 kmh S 5.7 mph9.2 kmh 29.71 in1006.1 mb 0.00 in0.0 mm 0.00 in0.0 mm 0.24 in6.1 mm
08:45 PM 57.9°F14.4°C 55.3°F12.9°C 91% Calm Calm -- 29.71 in1006.1 mb 0.00 in0.0 mm 0.00 in0.0 mm 0.24 in6.1 mm
09:00 PM 57.9°F14.4°C 55.3°F12.9°C 91% 2.1 mph S3.4 kmh S 5.7 mph9.2 kmh 29.71 in1006.1 mb 0.05 in1.3 mm 0.07 in1.8 mm 0.29 in7.4 mm
09:15 PM 58.1°F14.5°C 55.5°F13.1°C 91% Calm Calm -- 29.74 in1007.1 mb 0.05 in1.3 mm 0.00 in0.0 mm 0.29 in7.4 mm
09:30 PM 58.3°F14.6°C 56.0°F13.3°C 92% 4.7 mph S7.6 kmh S 10.0 mph16.1 kmh 29.74 in1007.1 mb 0.05 in1.3 mm 0.00 in0.0 mm 0.29 in7.4 mm
09:45 PM 58.5°F14.7°C 56.1°F13.4°C 92% Calm Calm -- 29.74 in1007.1 mb 0.05 in1.3 mm 0.00 in0.0 mm 0.29 in7.4 mm
10:00 PM 58.8°F14.9°C 56.5°F13.6°C 92% Calm Calm -- 29.74 in1007.1 mb 0.05 in1.3 mm 0.00 in0.0 mm 0.33 in8.4 mm
10:15 PM 59.0°F15.0°C 56.7°F13.7°C 92% 7.6 mph S12.2 kmh S 9.3 mph15.0 kmh 29.71 in1006.1 mb 0.05 in1.3 mm 0.00 in0.0 mm 0.33 in8.4 mm
10:30 PM 59.2°F15.1°C 57.2°F14.0°C 93% 6.7 mph S10.8 kmh S 11.5 mph18.5 kmh 29.71 in1006.1 mb 0.05 in1.3 mm 0.00 in0.0 mm 0.33 in8.4 mm
10:45 PM 58.8°F14.9°C 56.5°F13.6°C 92% 4.9 mph S7.9 kmh S 11.5 mph18.5 kmh 29.71 in1006.1 mb 0.05 in1.3 mm 0.00 in0.0 mm 0.33 in8.4 mm
11:00 PM 58.6°F14.8°C 56.3°F13.5°C 92% 6.7 mph S10.8 kmh S 17.5 mph28.2 kmh 29.71 in1006.1 mb 0.00 in0.0 mm 0.00 in0.0 mm 0.30 in7.6 mm
11:15 PM 58.5°F14.7°C 56.1°F13.4°C 92% 6.4 mph SSE10.3 kmh SSE 13.6 mph21.9 kmh 29.68 in1005.1 mb 0.00 in0.0 mm 0.00 in0.0 mm 0.30 in7.6 mm
11:30 PM 58.5°F14.7°C 56.4°F13.6°C 93% 6.2 mph SE10.0 kmh SE 12.9 mph20.8 kmh 29.68 in1005.1 mb 0.00 in0.0 mm 0.00 in0.0 mm 0.30 in7.6 mm
11:45 PM 58.8°F14.9°C 56.8°F13.8°C 93% 6.2 mph SSE10.0 kmh SSE 17.5 mph28.2 kmh 29.68 in1005.1 mb 0.00 in0.0 mm 0.00 in0.0 mm 0.30 in7.6 mm